createdAt,value
2022-10-01T00:01:01.902Z,9.85
2022-10-01T00:03:29.644Z,15.50
2022-10-01T00:06:12.175Z,14.88
2022-10-01T00:08:41.281Z,11.20
2022-10-01T00:11:12.659Z,10.32
2022-10-01T00:13:42.719Z,11.23
2022-10-01T00:16:11.586Z,11.67
2022-10-01T00:18:40.200Z,12.15
2022-10-01T00:21:11.856Z,17.70
2022-10-01T00:23:38.768Z,9.50
2022-10-01T00:26:23.025Z,10.65
2022-10-01T00:28:55.275Z,8.83
2022-10-01T00:31:22.186Z,18.02
2022-10-01T00:33:51.577Z,9.38
2022-10-01T00:36:18.135Z,9.68
2022-10-01T00:38:44.916Z,10.60
2022-10-01T00:41:11.772Z,6.80
2022-10-01T00:43:43.967Z,8.85
2022-10-01T00:46:19.938Z,7.72
2022-10-01T00:49:05.519Z,7.65
2022-10-01T00:51:37.603Z,15.27
2022-10-01T00:54:12.378Z,9.20
2022-10-01T00:56:39.456Z,14.20
2022-10-01T00:59:07.197Z,8.15
2022-10-01T01:01:38.756Z,8.50
2022-10-01T01:04:06.599Z,9.55
2022-10-01T01:06:33.302Z,6.10
2022-10-01T01:09:00.014Z,14.32
2022-10-01T01:11:48.136Z,7.05
2022-10-01T01:14:33.541Z,10.68
2022-10-01T01:17:06.428Z,7.50
2022-10-01T01:19:51.311Z,11.00
2022-10-01T01:22:22.821Z,8.77
2022-10-01T01:24:53.491Z,8.70
2022-10-01T01:27:35.472Z,14.60
2022-10-01T01:30:04.002Z,7.53
2022-10-01T01:32:32.759Z,8.63
2022-10-01T01:35:01.739Z,10.20
2022-10-01T01:37:33.297Z,7.80
2022-10-01T01:40:01.546Z,7.45
2022-10-01T01:42:32.894Z,11.02
2022-10-01T01:45:01.751Z,6.13
2022-10-01T01:47:30.137Z,8.40
2022-10-01T01:49:57.387Z,13.30
2022-10-01T01:52:24.227Z,9.35
2022-10-01T01:54:51.418Z,6.55
2022-10-01T01:57:19.907Z,6.17
2022-10-01T01:59:46.944Z,8.90
2022-10-01T02:02:19.027Z,8.05
2022-10-01T02:04:54.915Z,9.55
2022-10-01T02:07:33.738Z,5.53
2022-10-01T02:10:15.283Z,14.70
2022-10-01T02:12:53.069Z,6.75
2022-10-01T02:15:31.282Z,8.98
2022-10-01T02:18:10.176Z,12.45
2022-10-01T02:20:49.782Z,6.93
2022-10-01T02:23:25.027Z,6.63
2022-10-01T02:26:04.279Z,6.03
2022-10-01T02:28:33.397Z,7.07
2022-10-01T02:31:01.812Z,4.95
2022-10-01T02:33:31.414Z,12.93
2022-10-01T02:35:59.769Z,7.07
2022-10-01T02:38:28.193Z,12.65
2022-10-01T02:40:58.183Z,14.95
2022-10-01T02:43:34.479Z,7.47
2022-10-01T02:46:09.922Z,9.55
2022-10-01T02:48:36.734Z,8.97
2022-10-01T02:51:41.678Z,8.15
2022-10-01T02:54:18.836Z,6.50
2022-10-01T02:59:27.300Z,7.40
2022-10-01T03:01:54.394Z,6.97
2022-10-01T03:04:26.274Z,5.63
2022-10-01T03:06:52.932Z,5.32
2022-10-01T03:09:20.003Z,8.10
2022-10-01T03:11:46.715Z,8.95
2022-10-01T03:14:13.281Z,8.70
2022-10-01T03:16:42.926Z,7.03
2022-10-01T03:19:09.517Z,16.30
2022-10-01T03:21:36.459Z,7.70
2022-10-01T03:24:03.602Z,11.63
2022-10-01T03:26:30.187Z,12.17
2022-10-01T03:28:56.792Z,6.88
2022-10-01T03:31:23.442Z,6.97
2022-10-01T03:33:50.012Z,7.50
2022-10-01T03:36:16.901Z,9.40
2022-10-01T03:38:43.683Z,6.53
2022-10-01T03:41:19.548Z,7.85
2022-10-01T03:43:46.135Z,9.02
2022-10-01T03:46:12.994Z,11.73
2022-10-01T03:48:39.655Z,9.82
2022-10-01T03:51:06.640Z,9.37
2022-10-01T03:53:57.948Z,6.57
2022-10-01T03:56:30.801Z,7.07
2022-10-01T03:58:57.443Z,9.70
2022-10-01T04:01:27.708Z,10.75
2022-10-01T04:04:09.886Z,10.30
2022-10-01T04:06:48.966Z,8.00
2022-10-01T04:09:15.642Z,6.53
2022-10-01T04:11:44.839Z,11.27
2022-10-01T04:14:23.128Z,8.35
2022-10-01T04:16:49.690Z,7.00
2022-10-01T04:19:19.657Z,8.95
2022-10-01T04:21:46.416Z,11.43
2022-10-01T04:24:17.867Z,7.57
2022-10-01T04:26:44.418Z,16.23
2022-10-01T04:29:10.962Z,13.77
2022-10-01T04:31:38.006Z,5.40
2022-10-01T04:34:04.952Z,6.30
2022-10-01T04:36:31.575Z,12.88
2022-10-01T04:39:02.026Z,9.15
2022-10-01T04:41:30.040Z,13.53
2022-10-01T04:43:56.737Z,10.25
2022-10-01T04:46:23.339Z,7.60
2022-10-01T04:48:49.964Z,12.48
2022-10-01T04:51:17.420Z,9.95
2022-10-01T04:53:44.049Z,16.60
2022-10-01T04:56:10.775Z,14.82
2022-10-01T04:58:37.329Z,10.63
2022-10-01T05:01:03.940Z,8.77
2022-10-01T05:03:30.535Z,18.88
2022-10-01T05:05:57.213Z,11.03
2022-10-01T05:08:29.571Z,17.38
2022-10-01T05:10:58.777Z,12.30
2022-10-01T05:13:30.674Z,11.13
2022-10-01T05:16:06.404Z,15.20
2022-10-01T05:18:33.175Z,15.97
2022-10-01T05:23:47.805Z,17.73
2022-10-01T05:26:14.365Z,10.90
2022-10-01T05:28:41.080Z,10.00
2022-10-01T05:31:07.796Z,12.10
2022-10-01T05:33:34.508Z,11.23
2022-10-01T05:36:01.337Z,13.70
2022-10-01T05:38:27.929Z,16.50
2022-10-01T05:40:54.500Z,11.75
2022-10-01T05:43:21.047Z,15.17
2022-10-01T05:45:47.623Z,11.27
2022-10-01T05:48:14.294Z,10.65
2022-10-01T05:50:40.853Z,13.82
2022-10-01T05:53:09.916Z,12.52
2022-10-01T05:55:36.559Z,9.03
2022-10-01T05:58:05.909Z,14.60
2022-10-01T06:00:33.682Z,13.05
2022-10-01T06:03:01.717Z,11.48
2022-10-01T06:05:29.908Z,8.80
2022-10-01T06:07:57.488Z,12.33
2022-10-01T06:13:42.518Z,12.25
2022-10-01T06:16:11.153Z,14.50
2022-10-01T06:18:40.454Z,9.75
2022-10-01T06:21:10.231Z,12.03
2022-10-01T06:23:37.044Z,12.73
2022-10-01T06:26:05.253Z,7.80
2022-10-01T06:28:32.730Z,9.68
2022-10-01T06:31:02.853Z,10.10
2022-10-01T06:33:32.219Z,10.53
2022-10-01T06:35:58.977Z,10.75
2022-10-01T06:38:28.813Z,14.27
2022-10-01T06:41:01.045Z,12.52
2022-10-01T06:43:29.536Z,14.43
2022-10-01T06:46:04.542Z,16.50
2022-10-01T06:48:32.590Z,14.65
2022-10-01T06:51:10.502Z,13.68
2022-10-01T06:53:37.293Z,14.55
2022-10-01T06:59:06.332Z,10.30
2022-10-01T07:01:39.190Z,9.30
2022-10-01T07:04:07.376Z,15.07
2022-10-01T07:09:38.026Z,13.35
2022-10-01T07:12:07.336Z,14.73
2022-10-01T07:14:39.940Z,12.40
2022-10-01T07:17:12.181Z,8.57
2022-10-01T07:19:41.573Z,9.00
2022-10-01T07:22:13.178Z,14.77
2022-10-01T07:24:43.745Z,12.03
2022-10-01T07:27:14.460Z,6.45
2022-10-01T07:31:21.350Z,12.48
2022-10-01T07:32:46.786Z,12.90
2022-10-01T07:35:46.498Z,13.00
2022-10-01T07:41:26.233Z,12.88
2022-10-01T07:44:25.930Z,13.52
2022-10-01T07:56:00.664Z,10.27
2022-10-01T09:06:39.942Z,16.15
2022-10-01T09:15:10.164Z,15.67
2022-10-01T09:33:53.967Z,16.05
2022-10-01T09:39:49.339Z,16.38
2022-10-01T10:06:49.237Z,19.60
2022-10-01T10:29:28.876Z,14.63
2022-10-01T10:31:55.893Z,18.90
2022-10-01T10:37:32.757Z,13.93
2022-10-01T10:39:59.667Z,11.98
2022-10-01T11:09:11.260Z,10.32
2022-10-01T11:12:18.870Z,14.50
2022-10-01T11:14:58.486Z,13.27
2022-10-01T11:20:31.060Z,12.25
2022-10-01T11:38:37.773Z,11.10
2022-10-01T11:41:35.203Z,16.17
2022-10-01T11:50:48.196Z,17.52
2022-10-01T11:53:43.178Z,13.20
2022-10-01T11:56:19.312Z,9.87
2022-10-01T11:59:17.590Z,9.55
2022-10-01T12:02:14.769Z,8.05
2022-10-01T12:05:12.282Z,12.90
2022-10-01T12:07:54.976Z,9.88
2022-10-01T12:10:53.094Z,14.73
2022-10-01T12:13:28.541Z,10.07
2022-10-01T12:19:25.275Z,17.75
2022-10-01T12:21:56.352Z,11.88
2022-10-01T12:24:29.557Z,14.30
2022-10-01T12:27:04.797Z,16.17
2022-10-01T12:29:34.400Z,13.23
2022-10-01T12:32:33.764Z,14.65
2022-10-01T12:35:21.358Z,14.07
2022-10-01T12:38:54.005Z,17.00
2022-10-01T12:41:56.207Z,11.05
2022-10-01T12:44:55.445Z,12.68
2022-10-01T12:48:02.572Z,16.42
2022-10-01T12:50:36.756Z,11.02
2022-10-01T12:53:30.771Z,14.53
2022-10-01T12:56:07.325Z,15.57
2022-10-01T12:58:52.619Z,15.35
2022-10-01T13:01:28.358Z,12.23
2022-10-01T13:04:17.104Z,10.77
2022-10-01T13:07:21.456Z,15.00
2022-10-01T13:13:09.628Z,15.07
2022-10-01T13:15:40.049Z,8.02
2022-10-01T13:18:37.965Z,11.18
2022-10-01T13:21:26.033Z,12.90
2022-10-01T13:23:55.352Z,9.68
2022-10-01T13:26:32.478Z,13.38
2022-10-01T13:29:02.438Z,9.77
2022-10-01T13:31:51.005Z,9.65
2022-10-01T13:34:43.852Z,11.83
2022-10-01T13:37:17.403Z,12.00
2022-10-01T13:39:45.895Z,9.73
2022-10-01T13:42:19.883Z,11.07
2022-10-01T13:44:53.540Z,12.98
2022-10-01T13:47:21.681Z,12.67
2022-10-01T13:50:01.561Z,13.13
2022-10-01T13:52:28.273Z,14.70
2022-10-01T13:54:56.072Z,11.45
2022-10-01T13:57:28.283Z,16.23
2022-10-01T14:00:00.006Z,11.30
2022-10-01T14:02:37.154Z,13.63
2022-10-01T14:05:24.533Z,9.25
2022-10-01T14:07:58.721Z,11.75
2022-10-01T14:10:41.155Z,12.25
2022-10-01T14:13:10.155Z,13.13
2022-10-01T14:15:47.222Z,12.07
2022-10-01T14:18:21.966Z,15.32
2022-10-01T14:21:00.739Z,14.50
2022-10-01T14:23:53.536Z,12.65
2022-10-01T14:29:59.335Z,14.25
2022-10-01T14:33:07.964Z,9.80
2022-10-01T14:35:47.779Z,15.77
2022-10-01T14:38:21.823Z,14.52
2022-10-01T14:40:53.216Z,10.83
2022-10-01T14:43:27.972Z,13.02
2022-10-01T14:46:00.757Z,12.77
2022-10-01T14:48:30.206Z,12.73
2022-10-01T14:51:01.033Z,10.48
2022-10-01T14:53:33.800Z,10.47
2022-10-01T14:56:05.582Z,15.48
2022-10-01T14:58:49.046Z,11.05
2022-10-01T15:01:19.933Z,15.15
2022-10-01T15:03:47.351Z,13.82
2022-10-01T15:06:18.129Z,13.93
2022-10-01T15:11:30.459Z,9.07
2022-10-01T15:14:03.502Z,13.98
2022-10-01T15:16:30.686Z,14.55
2022-10-01T15:19:00.728Z,10.37
2022-10-01T15:21:38.632Z,16.42
2022-10-01T15:24:11.227Z,10.38
2022-10-01T15:26:38.131Z,13.27
2022-10-01T15:29:14.240Z,13.68
2022-10-01T15:31:41.944Z,7.63
2022-10-01T15:34:13.199Z,10.93
2022-10-01T15:36:42.119Z,9.82
2022-10-01T15:39:34.683Z,11.02
2022-10-01T15:42:43.712Z,10.70
2022-10-01T15:45:11.944Z,10.57
2022-10-01T15:47:40.671Z,7.47
2022-10-01T15:50:12.854Z,13.90
2022-10-01T15:52:48.760Z,11.70
2022-10-01T15:55:35.058Z,12.55
2022-10-01T15:58:23.841Z,12.33
2022-10-01T16:00:59.946Z,13.73
2022-10-01T16:03:32.075Z,11.43
2022-10-01T16:05:59.605Z,12.48
2022-10-01T16:08:48.852Z,13.10
2022-10-01T16:14:36.649Z,14.13
2022-10-01T16:17:26.340Z,9.93
2022-10-01T16:20:00.565Z,11.60
2022-10-01T16:25:21.605Z,10.07
2022-10-01T16:27:59.061Z,14.65
2022-10-01T16:35:49.913Z,13.43
2022-10-01T16:38:17.783Z,14.17
2022-10-01T16:40:46.462Z,11.27
2022-10-01T16:43:21.769Z,9.63
2022-10-01T16:45:48.467Z,11.90
2022-10-01T16:48:43.098Z,11.98
2022-10-01T16:51:17.507Z,17.90
2022-10-01T16:53:44.165Z,16.63
2022-10-01T16:56:14.089Z,15.73
2022-10-01T17:01:23.895Z,17.05
2022-10-01T17:03:57.851Z,15.17
2022-10-01T17:06:29.545Z,16.45
2022-10-01T17:09:05.019Z,18.25
2022-10-01T17:11:32.085Z,15.15
2022-10-01T17:13:58.850Z,13.77
2022-10-01T17:16:29.207Z,13.43
2022-10-01T17:19:07.776Z,13.15
2022-10-01T17:21:37.046Z,16.25
2022-10-01T17:24:03.806Z,18.08
2022-10-01T17:26:30.564Z,13.95
2022-10-01T17:29:02.830Z,14.37
2022-10-01T17:31:38.122Z,14.45
2022-10-01T17:34:07.675Z,11.93
2022-10-01T17:36:35.882Z,17.00
2022-10-01T17:39:02.885Z,13.10
2022-10-01T17:41:29.700Z,13.47
2022-10-01T17:43:59.472Z,15.23
2022-10-01T17:46:26.290Z,14.75
2022-10-01T17:48:52.928Z,15.63
2022-10-01T17:51:46.261Z,17.60
2022-10-01T17:57:55.724Z,12.85
2022-10-01T18:00:22.527Z,14.95
2022-10-01T18:02:49.410Z,10.88
2022-10-01T18:08:54.766Z,16.90
2022-10-01T18:11:22.894Z,16.38
2022-10-01T18:16:26.200Z,21.52
2022-10-01T18:25:39.298Z,19.05
2022-10-01T18:28:07.185Z,18.50
2022-10-01T18:33:25.640Z,17.10
2022-10-01T18:35:56.855Z,14.33
2022-10-01T18:38:29.668Z,17.63
2022-10-01T18:41:05.014Z,18.83
2022-10-01T18:43:41.023Z,19.55
2022-10-01T18:46:34.976Z,15.07
2022-10-01T18:49:37.557Z,15.00
2022-10-01T19:27:24.583Z,11.88
2022-10-01T19:30:28.548Z,21.38
2022-10-01T19:33:15.066Z,14.07
2022-10-01T19:35:50.042Z,20.45
2022-10-01T19:58:28.889Z,12.30
2022-10-01T20:00:59.670Z,13.70
2022-10-01T20:03:37.619Z,18.90
2022-10-01T20:06:37.642Z,12.93
2022-10-01T20:09:36.581Z,11.40
2022-10-01T20:12:32.810Z,14.32
2022-10-01T20:18:36.850Z,14.05
2022-10-01T20:21:38.649Z,18.63
2022-10-01T20:24:46.998Z,12.63
2022-10-01T20:27:49.191Z,15.35
2022-10-01T20:36:42.638Z,12.50
2022-10-01T20:53:16.853Z,13.15
2022-10-01T20:56:36.414Z,18.08
2022-10-01T20:59:53.619Z,18.80
2022-10-01T21:02:33.401Z,18.90
2022-10-01T21:05:39.689Z,15.60
2022-10-01T21:08:33.634Z,16.92
2022-10-01T21:15:16.280Z,16.95
2022-10-01T21:18:42.444Z,19.87
2022-10-01T21:35:35.175Z,24.47
2022-10-01T21:41:37.121Z,21.23
2022-10-01T21:47:46.313Z,23.98
2022-10-01T21:50:50.249Z,25.33
2022-10-01T21:53:26.754Z,25.90
2022-10-01T21:56:23.796Z,32.05
2022-10-01T21:59:41.323Z,28.10
2022-10-01T22:08:55.934Z,26.55
2022-10-01T22:11:27.381Z,34.80
2022-10-01T22:14:17.116Z,31.30
2022-10-01T22:16:53.826Z,33.15
2022-10-01T22:19:34.343Z,38.77
2022-10-01T22:22:29.470Z,31.80
2022-10-01T22:25:00.116Z,26.38
2022-10-01T22:28:11.747Z,23.10
2022-10-01T22:30:41.732Z,31.75
2022-10-01T22:33:11.560Z,23.13
2022-10-01T22:35:40.844Z,26.15
2022-10-01T22:38:18.140Z,22.17
2022-10-01T22:41:03.096Z,18.90
2022-10-01T22:43:29.971Z,21.55
2022-10-01T22:46:23.520Z,28.87
2022-10-01T22:49:03.472Z,27.70
2022-10-01T22:52:00.394Z,13.68
2022-10-01T22:54:29.916Z,22.15
2022-10-01T22:57:02.445Z,13.13
2022-10-01T22:59:48.080Z,12.37
2022-10-01T23:02:28.794Z,22.50
2022-10-01T23:05:19.404Z,19.45
2022-10-01T23:08:05.335Z,15.75
2022-10-01T23:10:58.992Z,20.98
2022-10-01T23:13:38.259Z,14.03
2022-10-01T23:16:11.055Z,10.90
2022-10-01T23:19:25.964Z,15.60
2022-10-01T23:22:16.717Z,15.35
2022-10-01T23:25:04.451Z,17.15
2022-10-01T23:28:06.718Z,10.53
2022-10-01T23:37:42.817Z,11.90
2022-10-01T23:40:16.264Z,6.25
2022-10-01T23:43:02.421Z,5.80
2022-10-01T23:45:47.674Z,9.18
2022-10-01T23:48:57.670Z,13.27
2022-10-01T23:55:19.885Z,6.95
2022-10-01T23:57:51.261Z,12.27
